La Porsche — VY9305 — position and weather

sailwx.info

Track history (hours):
 
Tides and Currents Weather Stations Pressure Air Temp Water Temp Dewpoint Dewpoint Depression Visibility Wind Speed Wind Dir Waves Ship Positions

La Porsche

Last reported at 2016-Jun-25 21:10 UTC. Time now 2016-Jun-27 09:42 UTC.
Position N 51°01' W 127°53'.

Length 22 m; draft 3 m.

Type: Fishing. MMSI: 316001649.

Date/timePositionNaut miles runAvg speedWind from/ knotsBaromVisibWave heightAir tempDewpointWater temp
2016-Jun-25 21:10N 51°01' W 127°53'5 7.9
2016-Jun-25 20:33N 50°58' W 127°47'9 8.6
2016-Jun-25 19:34N 50°52' W 127°37'7 7.4
2016-Jun-25 18:33N 50°47' W 127°29'4 1.3
2016-Jun-25 15:33N 50°43' W 127°29'0 0.0
2016-Jun-25 14:34N 50°43' W 127°29'0 0.0
2016-Jun-25 13:33N 50°43' W 127°29'0 0.0
2016-Jun-25 12:34N 50°43' W 127°29'0 0.0
2016-Jun-25 11:34N 50°43' W 127°29'0 0.0
2016-Jun-25 10:33N 50°43' W 127°29'0 0.0
2016-Jun-25 09:34N 50°43' W 127°29'0 0.0
2016-Jun-25 08:33N 50°43' W 127°29'0 0.0
2016-Jun-25 07:33N 50°43' W 127°29'0 0.0
2016-Jun-25 06:33N 50°43' W 127°29'0 0.0
2016-Jun-25 05:34N 50°43' W 127°29'0 0.0
2016-Jun-25 04:33N 50°43' W 127°29'0 0.0
2016-Jun-25 03:34N 50°43' W 127°29'0 0.0
2016-Jun-25 02:34N 50°43' W 127°29'0 0.0
2016-Jun-25 01:33N 50°43' W 127°29'0 0.0
2016-Jun-25 00:33N 50°43' W 127°29'0 0.0
2016-Jun-24 23:33N 50°43' W 127°29'0 0.0
2016-Jun-24 22:33N 50°43' W 127°29'0 0.0
2016-Jun-24 21:33N 50°43' W 127°29'0 0.0
2016-Jun-24 20:33N 50°43' W 127°29'0 0.0
2016-Jun-24 19:33N 50°43' W 127°29'0 0.0
2016-Jun-24 18:33N 50°43' W 127°29'0 0.0
2016-Jun-24 17:33N 50°43' W 127°29'0 0.0
2016-Jun-24 16:34N 50°43' W 127°29'0 0.0
2016-Jun-24 15:33N 50°43' W 127°29'0 0.0
2016-Jun-24 14:33N 50°43' W 127°29'0 0.0
2016-Jun-24 13:33N 50°43' W 127°29'0 0.0
2016-Jun-24 12:34N 50°43' W 127°29'0 0.0
2016-Jun-24 11:33N 50°43' W 127°29'0 0.0
2016-Jun-24 10:34N 50°43' W 127°29'0 0.0
2016-Jun-24 09:33N 50°43' W 127°29'0 0.0
2016-Jun-24 08:34N 50°43' W 127°29'0 0.0
2016-Jun-24 07:33N 50°43' W 127°29'0 0.0
2016-Jun-24 04:33N 50°43' W 127°29'0 0.0
2016-Jun-24 03:33N 50°43' W 127°29'0 0.0
2016-Jun-24 02:33N 50°43' W 127°29'0 0.0
2016-Jun-24 01:33N 50°43' W 127°29'0 0.0
2016-Jun-24 00:34N 50°43' W 127°29'0 0.3
2016-Jun-23 23:33N 50°43' W 127°29'0 0.0
2016-Jun-23 22:33N 50°43' W 127°29'0 0.0
2016-Jun-23 21:33N 50°43' W 127°29'0 0.0
2016-Jun-23 20:33N 50°43' W 127°29'0 0.0
2016-Jun-23 19:33N 50°43' W 127°29'0 0.0
2016-Jun-23 18:33N 50°43' W 127°29'0 0.0
2016-Jun-23 17:33N 50°43' W 127°29'0 0.0
2016-Jun-23 16:33N 50°43' W 127°29'0 0.0
2016-Jun-23 15:33N 50°43' W 127°29'0 0.0
2016-Jun-23 14:33N 50°43' W 127°29'3 3.1
2016-Jun-23 13:33N 50°46' W 127°28'8 7.5
2016-Jun-23 12:33N 50°49' W 127°39'9 8.4
2016-Jun-23 11:28N 50°53' W 127°52'  
Track history (hours):
 
Tides and Currents Weather Stations Pressure Air Temp Water Temp Dewpoint Dewpoint Depression Visibility Wind Speed Wind Dir Waves Ship Positions

La Porsche

Last reported at 2016-Jun-25 21:10 UTC. Time now 2016-Jun-27 09:42 UTC.
Position N 51°01' W 127°53'.

Length 22 m; draft 3 m.

Type: Fishing. MMSI: 316001649.

Date/timePositionNaut miles runAvg speedWind from/ knotsBaromVisibWave heightAir tempDewpointWater temp
2016-Jun-25 21:10N 51°01' W 127°53'5 7.9
2016-Jun-25 20:33N 50°58' W 127°47'9 8.6
2016-Jun-25 19:34N 50°52' W 127°37'7 7.4
2016-Jun-25 18:33N 50°47' W 127°29'4 1.3
2016-Jun-25 15:33N 50°43' W 127°29'0 0.0
2016-Jun-25 14:34N 50°43' W 127°29'0 0.0
2016-Jun-25 13:33N 50°43' W 127°29'0 0.0
2016-Jun-25 12:34N 50°43' W 127°29'0 0.0
2016-Jun-25 11:34N 50°43' W 127°29'0 0.0
2016-Jun-25 10:33N 50°43' W 127°29'0 0.0
2016-Jun-25 09:34N 50°43' W 127°29'0 0.0
2016-Jun-25 08:33N 50°43' W 127°29'0 0.0
2016-Jun-25 07:33N 50°43' W 127°29'0 0.0
2016-Jun-25 06:33N 50°43' W 127°29'0 0.0
2016-Jun-25 05:34N 50°43' W 127°29'0 0.0
2016-Jun-25 04:33N 50°43' W 127°29'0 0.0
2016-Jun-25 03:34N 50°43' W 127°29'0 0.0
2016-Jun-25 02:34N 50°43' W 127°29'0 0.0
2016-Jun-25 01:33N 50°43' W 127°29'0 0.0
2016-Jun-25 00:33N 50°43' W 127°29'0 0.0
2016-Jun-24 23:33N 50°43' W 127°29'0 0.0
2016-Jun-24 22:33N 50°43' W 127°29'0 0.0
2016-Jun-24 21:33N 50°43' W 127°29'0 0.0
2016-Jun-24 20:33N 50°43' W 127°29'0 0.0
2016-Jun-24 19:33N 50°43' W 127°29'0 0.0
2016-Jun-24 18:33N 50°43' W 127°29'0 0.0
2016-Jun-24 17:33N 50°43' W 127°29'0 0.0
2016-Jun-24 16:34N 50°43' W 127°29'0 0.0
2016-Jun-24 15:33N 50°43' W 127°29'0 0.0
2016-Jun-24 14:33N 50°43' W 127°29'0 0.0
2016-Jun-24 13:33N 50°43' W 127°29'0 0.0
2016-Jun-24 12:34N 50°43' W 127°29'0 0.0
2016-Jun-24 11:33N 50°43' W 127°29'0 0.0
2016-Jun-24 10:34N 50°43' W 127°29'0 0.0
2016-Jun-24 09:33N 50°43' W 127°29'0 0.0
2016-Jun-24 08:34N 50°43' W 127°29'0 0.0
2016-Jun-24 07:33N 50°43' W 127°29'0 0.0
2016-Jun-24 04:33N 50°43' W 127°29'0 0.0
2016-Jun-24 03:33N 50°43' W 127°29'0 0.0
2016-Jun-24 02:33N 50°43' W 127°29'0 0.0
2016-Jun-24 01:33N 50°43' W 127°29'0 0.0
2016-Jun-24 00:34N 50°43' W 127°29'0 0.3
2016-Jun-23 23:33N 50°43' W 127°29'0 0.0
2016-Jun-23 22:33N 50°43' W 127°29'0 0.0
2016-Jun-23 21:33N 50°43' W 127°29'0 0.0
2016-Jun-23 20:33N 50°43' W 127°29'0 0.0
2016-Jun-23 19:33N 50°43' W 127°29'0 0.0
2016-Jun-23 18:33N 50°43' W 127°29'0 0.0
2016-Jun-23 17:33N 50°43' W 127°29'0 0.0
2016-Jun-23 16:33N 50°43' W 127°29'0 0.0
2016-Jun-23 15:33N 50°43' W 127°29'0 0.0
2016-Jun-23 14:33N 50°43' W 127°29'3 3.1
2016-Jun-23 13:33N 50°46' W 127°28'8 7.5
2016-Jun-23 12:33N 50°49' W 127°39'9 8.4
2016-Jun-23 11:28N 50°53' W 127°52'  

Dump ship's entire track history